sensor_id;sensor_type;location;lat;lon;timestamp;temperature;humidity
2226;DHT22;1119;48.288;8.726;2022-07-29T00:00:28;19.20;99.90
2226;DHT22;1119;48.288;8.726;2022-07-29T00:02:56;19.10;99.90
2226;DHT22;1119;48.288;8.726;2022-07-29T00:05:23;19.10;99.90
2226;DHT22;1119;48.288;8.726;2022-07-29T00:07:50;19.00;99.90
2226;DHT22;1119;48.288;8.726;2022-07-29T00:10:17;19.00;99.90
2226;DHT22;1119;48.288;8.726;2022-07-29T00:12:46;18.90;99.90
2226;DHT22;1119;48.288;8.726;2022-07-29T00:15:13;18.80;99.90
2226;DHT22;1119;48.288;8.726;2022-07-29T00:17:40;18.70;99.90
2226;DHT22;1119;48.288;8.726;2022-07-29T00:20:08;18.60;99.90
2226;DHT22;1119;48.288;8.726;2022-07-29T00:22:37;18.60;99.90
2226;DHT22;1119;48.288;8.726;2022-07-29T00:25:05;18.50;99.90
2226;DHT22;1119;48.288;8.726;2022-07-29T00:27:33;18.40;99.90
2226;DHT22;1119;48.288;8.726;2022-07-29T00:30:03;18.40;99.90
2226;DHT22;1119;48.288;8.726;2022-07-29T00:32:30;18.40;99.90
2226;DHT22;1119;48.288;8.726;2022-07-29T00:34:57;18.40;99.90
2226;DHT22;1119;48.288;8.726;2022-07-29T00:37:42;18.50;99.90
2226;DHT22;1119;48.288;8.726;2022-07-29T00:40:10;18.60;99.90
2226;DHT22;1119;48.288;8.726;2022-07-29T00:42:49;18.60;99.90
2226;DHT22;1119;48.288;8.726;2022-07-29T00:45:19;18.60;99.90
2226;DHT22;1119;48.288;8.726;2022-07-29T00:47:48;18.70;99.90
2226;DHT22;1119;48.288;8.726;2022-07-29T00:50:15;18.70;99.90
2226;DHT22;1119;48.288;8.726;2022-07-29T00:52:43;18.70;99.90
2226;DHT22;1119;48.288;8.726;2022-07-29T00:55:12;18.70;99.90
2226;DHT22;1119;48.288;8.726;2022-07-29T00:57:41;18.80;99.90
2226;DHT22;1119;48.288;8.726;2022-07-29T01:00:12;18.80;99.90
2226;DHT22;1119;48.288;8.726;2022-07-29T01:02:41;18.70;99.90
2226;DHT22;1119;48.288;8.726;2022-07-29T01:05:09;18.70;99.90
2226;DHT22;1119;48.288;8.726;2022-07-29T01:07:39;18.70;99.90
2226;DHT22;1119;48.288;8.726;2022-07-29T01:10:07;18.70;99.90
2226;DHT22;1119;48.288;8.726;2022-07-29T01:12:37;18.70;99.90
2226;DHT22;1119;48.288;8.726;2022-07-29T01:15:06;18.70;99.90
2226;DHT22;1119;48.288;8.726;2022-07-29T01:17:39;18.70;99.90
2226;DHT22;1119;48.288;8.726;2022-07-29T01:20:14;18.60;99.90
2226;DHT22;1119;48.288;8.726;2022-07-29T01:23:01;18.60;99.90
2226;DHT22;1119;48.288;8.726;2022-07-29T01:25:54;18.60;99.90
2226;DHT22;1119;48.288;8.726;2022-07-29T01:29:02;18.60;99.90
2226;DHT22;1119;48.288;8.726;2022-07-29T01:31:41;18.70;99.90
2226;DHT22;1119;48.288;8.726;2022-07-29T01:34:15;18.70;99.90
2226;DHT22;1119;48.288;8.726;2022-07-29T01:36:48;18.70;99.90
2226;DHT22;1119;48.288;8.726;2022-07-29T01:39:21;18.80;99.90
2226;DHT22;1119;48.288;8.726;2022-07-29T01:41:56;18.80;99.90
2226;DHT22;1119;48.288;8.726;2022-07-29T01:44:31;18.80;99.90
2226;DHT22;1119;48.288;8.726;2022-07-29T01:47:05;18.70;99.90
2226;DHT22;1119;48.288;8.726;2022-07-29T01:49:43;18.70;99.90
2226;DHT22;1119;48.288;8.726;2022-07-29T01:52:20;18.70;99.90
2226;DHT22;1119;48.288;8.726;2022-07-29T01:54:53;18.80;99.90
2226;DHT22;1119;48.288;8.726;2022-07-29T01:57:31;18.80;99.90
2226;DHT22;1119;48.288;8.726;2022-07-29T02:00:01;18.70;99.90
2226;DHT22;1119;48.288;8.726;2022-07-29T02:02:39;18.80;99.90
2226;DHT22;1119;48.288;8.726;2022-07-29T02:05:10;18.80;99.90
2226;DHT22;1119;48.288;8.726;2022-07-29T02:07:40;18.80;99.90
2226;DHT22;1119;48.288;8.726;2022-07-29T02:10:10;18.80;99.90
2226;DHT22;1119;48.288;8.726;2022-07-29T02:12:39;18.80;99.90
2226;DHT22;1119;48.288;8.726;2022-07-29T02:15:09;18.80;99.90
2226;DHT22;1119;48.288;8.726;2022-07-29T02:17:42;18.80;99.90
2226;DHT22;1119;48.288;8.726;2022-07-29T02:20:11;18.80;99.90
2226;DHT22;1119;48.288;8.726;2022-07-29T02:22:39;18.90;99.90
2226;DHT22;1119;48.288;8.726;2022-07-29T02:25:08;18.90;99.90
2226;DHT22;1119;48.288;8.726;2022-07-29T02:27:38;18.90;99.90
2226;DHT22;1119;48.288;8.726;2022-07-29T02:30:09;18.80;99.90
2226;DHT22;1119;48.288;8.726;2022-07-29T02:32:39;18.80;99.90
2226;DHT22;1119;48.288;8.726;2022-07-29T02:35:08;18.70;99.90
2226;DHT22;1119;48.288;8.726;2022-07-29T02:37:37;18.60;99.90
2226;DHT22;1119;48.288;8.726;2022-07-29T02:40:07;18.60;99.90
2226;DHT22;1119;48.288;8.726;2022-07-29T02:42:36;18.50;99.90
2226;DHT22;1119;48.288;8.726;2022-07-29T02:45:05;18.40;99.90
2226;DHT22;1119;48.288;8.726;2022-07-29T02:47:37;18.30;99.90
2226;DHT22;1119;48.288;8.726;2022-07-29T02:50:11;18.30;99.90
2226;DHT22;1119;48.288;8.726;2022-07-29T02:52:44;18.30;99.90
2226;DHT22;1119;48.288;8.726;2022-07-29T02:55:16;18.30;99.90
2226;DHT22;1119;48.288;8.726;2022-07-29T02:57:49;18.30;99.90
2226;DHT22;1119;48.288;8.726;2022-07-29T03:00:18;18.20;99.90
2226;DHT22;1119;48.288;8.726;2022-07-29T03:02:51;18.10;99.90
2226;DHT22;1119;48.288;8.726;2022-07-29T03:05:20;18.10;99.90
2226;DHT22;1119;48.288;8.726;2022-07-29T03:07:55;18.10;99.90
2226;DHT22;1119;48.288;8.726;2022-07-29T03:10:25;18.10;99.90
2226;DHT22;1119;48.288;8.726;2022-07-29T03:12:53;18.10;99.90
2226;DHT22;1119;48.288;8.726;2022-07-29T03:15:21;18.10;99.90
2226;DHT22;1119;48.288;8.726;2022-07-29T03:17:50;18.20;99.90
2226;DHT22;1119;48.288;8.726;2022-07-29T03:20:18;18.20;99.90
2226;DHT22;1119;48.288;8.726;2022-07-29T03:22:46;18.30;99.90
2226;DHT22;1119;48.288;8.726;2022-07-29T03:25:14;18.20;99.90
2226;DHT22;1119;48.288;8.726;2022-07-29T03:27:42;18.30;99.90
2226;DHT22;1119;48.288;8.726;2022-07-29T03:30:11;18.20;99.90
2226;DHT22;1119;48.288;8.726;2022-07-29T03:32:41;18.20;99.90
2226;DHT22;1119;48.288;8.726;2022-07-29T03:35:10;18.20;99.90
2226;DHT22;1119;48.288;8.726;2022-07-29T03:37:37;18.20;99.90
2226;DHT22;1119;48.288;8.726;2022-07-29T03:40:07;18.20;99.90
2226;DHT22;1119;48.288;8.726;2022-07-29T03:42:38;18.10;99.90
2226;DHT22;1119;48.288;8.726;2022-07-29T03:45:09;18.10;99.90
2226;DHT22;1119;48.288;8.726;2022-07-29T03:47:40;18.10;99.90
2226;DHT22;1119;48.288;8.726;2022-07-29T03:50:18;18.00;99.90
2226;DHT22;1119;48.288;8.726;2022-07-29T03:52:47;18.00;99.90
2226;DHT22;1119;48.288;8.726;2022-07-29T03:55:15;18.00;99.90
2226;DHT22;1119;48.288;8.726;2022-07-29T03:57:44;18.00;99.90
2226;DHT22;1119;48.288;8.726;2022-07-29T04:00:12;17.90;99.90
2226;DHT22;1119;48.288;8.726;2022-07-29T04:02:41;18.00;99.90
2226;DHT22;1119;48.288;8.726;2022-07-29T04:05:12;18.00;99.90
2226;DHT22;1119;48.288;8.726;2022-07-29T04:07:42;18.10;99.90
2226;DHT22;1119;48.288;8.726;2022-07-29T04:10:10;18.10;99.90
2226;DHT22;1119;48.288;8.726;2022-07-29T04:12:37;18.10;99.90
2226;DHT22;1119;48.288;8.726;2022-07-29T04:15:05;18.10;99.90
2226;DHT22;1119;48.288;8.726;2022-07-29T04:17:33;18.20;99.90
2226;DHT22;1119;48.288;8.726;2022-07-29T04:20:00;18.20;99.90
2226;DHT22;1119;48.288;8.726;2022-07-29T04:22:27;18.30;99.90
2226;DHT22;1119;48.288;8.726;2022-07-29T04:24:56;18.30;99.90
2226;DHT22;1119;48.288;8.726;2022-07-29T04:27:23;18.30;99.90
2226;DHT22;1119;48.288;8.726;2022-07-29T04:29:50;18.40;99.90
2226;DHT22;1119;48.288;8.726;2022-07-29T04:32:17;18.40;99.90
2226;DHT22;1119;48.288;8.726;2022-07-29T04:34:44;18.40;99.90
2226;DHT22;1119;48.288;8.726;2022-07-29T04:37:12;18.50;99.90
2226;DHT22;1119;48.288;8.726;2022-07-29T04:39:39;18.50;99.90
2226;DHT22;1119;48.288;8.726;2022-07-29T04:42:08;18.50;99.90
2226;DHT22;1119;48.288;8.726;2022-07-29T04:44:35;18.60;99.90
2226;DHT22;1119;48.288;8.726;2022-07-29T04:47:02;18.60;99.90
2226;DHT22;1119;48.288;8.726;2022-07-29T04:49:30;18.60;99.90
2226;DHT22;1119;48.288;8.726;2022-07-29T04:51:57;18.50;99.90
2226;DHT22;1119;48.288;8.726;2022-07-29T04:54:24;18.50;99.90
2226;DHT22;1119;48.288;8.726;2022-07-29T04:56:51;18.40;99.90
2226;DHT22;1119;48.288;8.726;2022-07-29T04:59:19;18.40;99.90
2226;DHT22;1119;48.288;8.726;2022-07-29T05:01:47;18.40;99.90
2226;DHT22;1119;48.288;8.726;2022-07-29T05:04:14;18.50;99.90
2226;DHT22;1119;48.288;8.726;2022-07-29T05:06:41;18.50;99.90
2226;DHT22;1119;48.288;8.726;2022-07-29T05:09:08;18.60;99.90
2226;DHT22;1119;48.288;8.726;2022-07-29T05:11:35;18.70;99.90
2226;DHT22;1119;48.288;8.726;2022-07-29T05:14:02;18.70;99.90
2226;DHT22;1119;48.288;8.726;2022-07-29T05:16:30;18.80;99.90
2226;DHT22;1119;48.288;8.726;2022-07-29T05:18:57;18.90;99.90
2226;DHT22;1119;48.288;8.726;2022-07-29T05:21:25;19.00;99.90
2226;DHT22;1119;48.288;8.726;2022-07-29T05:23:52;19.10;99.90
2226;DHT22;1119;48.288;8.726;2022-07-29T05:26:19;19.10;99.90
2226;DHT22;1119;48.288;8.726;2022-07-29T05:28:46;19.10;99.90
2226;DHT22;1119;48.288;8.726;2022-07-29T05:31:13;19.20;99.90
2226;DHT22;1119;48.288;8.726;2022-07-29T05:33:42;19.30;99.90
2226;DHT22;1119;48.288;8.726;2022-07-29T05:36:09;19.30;99.90
2226;DHT22;1119;48.288;8.726;2022-07-29T05:38:37;19.50;99.90
2226;DHT22;1119;48.288;8.726;2022-07-29T05:41:04;19.60;99.90
2226;DHT22;1119;48.288;8.726;2022-07-29T05:43:32;19.70;99.90
2226;DHT22;1119;48.288;8.726;2022-07-29T05:45:59;19.80;99.90
2226;DHT22;1119;48.288;8.726;2022-07-29T05:48:26;19.90;99.90
2226;DHT22;1119;48.288;8.726;2022-07-29T05:50:55;19.90;99.90
2226;DHT22;1119;48.288;8.726;2022-07-29T05:53:22;20.00;99.90
2226;DHT22;1119;48.288;8.726;2022-07-29T05:55:51;20.00;99.90
2226;DHT22;1119;48.288;8.726;2022-07-29T05:58:18;20.00;99.90
2226;DHT22;1119;48.288;8.726;2022-07-29T06:00:46;20.00;99.90
2226;DHT22;1119;48.288;8.726;2022-07-29T06:03:13;20.00;99.90
2226;DHT22;1119;48.288;8.726;2022-07-29T06:05:40;20.10;99.90
2226;DHT22;1119;48.288;8.726;2022-07-29T06:08:08;20.10;99.90
2226;DHT22;1119;48.288;8.726;2022-07-29T06:10:35;20.20;99.90
2226;DHT22;1119;48.288;8.726;2022-07-29T06:13:03;20.20;99.90
2226;DHT22;1119;48.288;8.726;2022-07-29T06:15:30;20.30;99.90
2226;DHT22;1119;48.288;8.726;2022-07-29T06:17:57;20.40;99.90
2226;DHT22;1119;48.288;8.726;2022-07-29T06:20:24;20.50;99.90
2226;DHT22;1119;48.288;8.726;2022-07-29T06:22:52;20.50;99.90
2226;DHT22;1119;48.288;8.726;2022-07-29T06:25:20;20.50;99.90
2226;DHT22;1119;48.288;8.726;2022-07-29T06:27:48;20.60;99.90
2226;DHT22;1119;48.288;8.726;2022-07-29T06:30:15;20.60;99.90
2226;DHT22;1119;48.288;8.726;2022-07-29T06:32:42;20.60;99.90
2226;DHT22;1119;48.288;8.726;2022-07-29T06:35:09;20.60;99.90
2226;DHT22;1119;48.288;8.726;2022-07-29T06:37:36;20.70;99.90
2226;DHT22;1119;48.288;8.726;2022-07-29T06:40:04;20.80;99.90
2226;DHT22;1119;48.288;8.726;2022-07-29T06:42:50;21.20;99.90
2226;DHT22;1119;48.288;8.726;2022-07-29T06:45:17;21.40;99.90
2226;DHT22;1119;48.288;8.726;2022-07-29T06:47:44;21.40;99.90
2226;DHT22;1119;48.288;8.726;2022-07-29T06:50:11;21.30;99.90
2226;DHT22;1119;48.288;8.726;2022-07-29T06:52:39;21.30;99.90
2226;DHT22;1119;48.288;8.726;2022-07-29T06:55:08;21.40;99.90
2226;DHT22;1119;48.288;8.726;2022-07-29T06:57:35;21.60;99.90
2226;DHT22;1119;48.288;8.726;2022-07-29T07:00:05;21.80;99.90
2226;DHT22;1119;48.288;8.726;2022-07-29T07:02:33;22.00;99.90
2226;DHT22;1119;48.288;8.726;2022-07-29T07:05:00;22.20;99.90
2226;DHT22;1119;48.288;8.726;2022-07-29T07:07:27;22.60;99.90
2226;DHT22;1119;48.288;8.726;2022-07-29T07:09:54;22.70;99.10
2226;DHT22;1119;48.288;8.726;2022-07-29T07:12:21;22.80;99.10
2226;DHT22;1119;48.288;8.726;2022-07-29T07:14:48;22.80;98.50
2226;DHT22;1119;48.288;8.726;2022-07-29T07:17:17;22.90;98.60
2226;DHT22;1119;48.288;8.726;2022-07-29T07:19:44;23.30;97.60
2226;DHT22;1119;48.288;8.726;2022-07-29T07:22:11;23.80;96.50
2226;DHT22;1119;48.288;8.726;2022-07-29T07:24:38;24.30;94.80
2226;DHT22;1119;48.288;8.726;2022-07-29T07:27:06;24.80;94.00
2226;DHT22;1119;48.288;8.726;2022-07-29T07:29:33;25.20;92.00
2226;DHT22;1119;48.288;8.726;2022-07-29T07:32:00;25.60;91.10
2226;DHT22;1119;48.288;8.726;2022-07-29T07:34:28;25.60;90.40
2226;DHT22;1119;48.288;8.726;2022-07-29T07:36:55;25.70;89.90
2226;DHT22;1119;48.288;8.726;2022-07-29T07:39:23;25.80;87.10
2226;DHT22;1119;48.288;8.726;2022-07-29T07:41:51;25.70;87.20
2226;DHT22;1119;48.288;8.726;2022-07-29T07:44:18;25.50;86.50
2226;DHT22;1119;48.288;8.726;2022-07-29T07:46:45;25.40;85.50
2226;DHT22;1119;48.288;8.726;2022-07-29T07:49:13;25.50;85.10
2226;DHT22;1119;48.288;8.726;2022-07-29T07:51:41;25.50;86.40
2226;DHT22;1119;48.288;8.726;2022-07-29T07:54:08;25.70;85.30
2226;DHT22;1119;48.288;8.726;2022-07-29T07:56:36;25.80;83.20
2226;DHT22;1119;48.288;8.726;2022-07-29T07:59:03;26.10;83.50
2226;DHT22;1119;48.288;8.726;2022-07-29T08:01:30;26.30;81.80
2226;DHT22;1119;48.288;8.726;2022-07-29T08:03:57;26.50;79.70
2226;DHT22;1119;48.288;8.726;2022-07-29T08:06:24;26.80;79.00
2226;DHT22;1119;48.288;8.726;2022-07-29T08:08:53;27.20;76.30
2226;DHT22;1119;48.288;8.726;2022-07-29T08:11:20;27.20;72.50
2226;DHT22;1119;48.288;8.726;2022-07-29T08:13:47;27.30;72.30
2226;DHT22;1119;48.288;8.726;2022-07-29T08:16:15;27.40;71.00
2226;DHT22;1119;48.288;8.726;2022-07-29T08:18:43;27.30;70.90
2226;DHT22;1119;48.288;8.726;2022-07-29T08:21:11;27.30;71.20
2226;DHT22;1119;48.288;8.726;2022-07-29T08:23:39;27.20;71.20
2226;DHT22;1119;48.288;8.726;2022-07-29T08:26:13;27.10;70.80
2226;DHT22;1119;48.288;8.726;2022-07-29T08:28:42;27.10;69.90
2226;DHT22;1119;48.288;8.726;2022-07-29T08:31:12;27.00;71.50
2226;DHT22;1119;48.288;8.726;2022-07-29T08:33:39;27.00;71.10
2226;DHT22;1119;48.288;8.726;2022-07-29T08:36:07;27.00;71.60
2226;DHT22;1119;48.288;8.726;2022-07-29T08:38:35;26.90;72.60
2226;DHT22;1119;48.288;8.726;2022-07-29T08:41:02;26.80;73.60
2226;DHT22;1119;48.288;8.726;2022-07-29T08:43:31;27.00;74.40
2226;DHT22;1119;48.288;8.726;2022-07-29T08:46:00;27.10;74.20
2226;DHT22;1119;48.288;8.726;2022-07-29T08:48:28;27.20;74.40
2226;DHT22;1119;48.288;8.726;2022-07-29T08:50:56;27.20;73.50
2226;DHT22;1119;48.288;8.726;2022-07-29T08:53:26;27.20;74.00
2226;DHT22;1119;48.288;8.726;2022-07-29T08:55:54;27.20;74.20
2226;DHT22;1119;48.288;8.726;2022-07-29T08:58:22;27.10;73.00
2226;DHT22;1119;48.288;8.726;2022-07-29T09:00:53;27.10;71.70
2226;DHT22;1119;48.288;8.726;2022-07-29T09:03:24;27.10;73.30
2226;DHT22;1119;48.288;8.726;2022-07-29T09:05:53;26.90;71.50
2226;DHT22;1119;48.288;8.726;2022-07-29T09:08:21;26.80;72.90
2226;DHT22;1119;48.288;8.726;2022-07-29T09:10:48;26.70;72.40
2226;DHT22;1119;48.288;8.726;2022-07-29T09:13:16;26.50;72.80
2226;DHT22;1119;48.288;8.726;2022-07-29T09:15:44;26.30;72.60
2226;DHT22;1119;48.288;8.726;2022-07-29T09:18:32;26.30;74.90
2226;DHT22;1119;48.288;8.726;2022-07-29T09:21:00;26.30;75.10
2226;DHT22;1119;48.288;8.726;2022-07-29T09:24:00;26.30;75.60
2226;DHT22;1119;48.288;8.726;2022-07-29T09:26:29;26.30;74.90
2226;DHT22;1119;48.288;8.726;2022-07-29T09:28:58;26.20;74.50
2226;DHT22;1119;48.288;8.726;2022-07-29T09:31:43;26.00;74.10
2226;DHT22;1119;48.288;8.726;2022-07-29T09:34:14;25.70;74.60
2226;DHT22;1119;48.288;8.726;2022-07-29T09:36:44;25.40;76.30
2226;DHT22;1119;48.288;8.726;2022-07-29T09:39:13;25.20;76.80
2226;DHT22;1119;48.288;8.726;2022-07-29T09:41:45;25.30;76.30
2226;DHT22;1119;48.288;8.726;2022-07-29T09:44:13;25.30;75.80
2226;DHT22;1119;48.288;8.726;2022-07-29T09:46:53;25.30;76.90
2226;DHT22;1119;48.288;8.726;2022-07-29T09:49:22;25.30;76.20
2226;DHT22;1119;48.288;8.726;2022-07-29T09:51:59;25.30;76.20
2226;DHT22;1119;48.288;8.726;2022-07-29T09:54:31;25.40;76.90
2226;DHT22;1119;48.288;8.726;2022-07-29T09:57:03;25.30;77.10
2226;DHT22;1119;48.288;8.726;2022-07-29T09:59:32;25.20;77.00
2226;DHT22;1119;48.288;8.726;2022-07-29T10:01:59;25.20;76.40
2226;DHT22;1119;48.288;8.726;2022-07-29T10:04:39;25.10;77.20
2226;DHT22;1119;48.288;8.726;2022-07-29T10:07:08;25.10;77.20
2226;DHT22;1119;48.288;8.726;2022-07-29T10:09:35;25.20;77.90
2226;DHT22;1119;48.288;8.726;2022-07-29T10:12:07;25.20;77.90
2226;DHT22;1119;48.288;8.726;2022-07-29T10:14:37;25.30;78.30
2226;DHT22;1119;48.288;8.726;2022-07-29T10:17:05;25.40;77.50
2226;DHT22;1119;48.288;8.726;2022-07-29T10:19:34;25.40;77.60
2226;DHT22;1119;48.288;8.726;2022-07-29T10:22:06;25.40;77.30
2226;DHT22;1119;48.288;8.726;2022-07-29T10:24:35;25.40;76.70
2226;DHT22;1119;48.288;8.726;2022-07-29T10:27:05;25.30;77.20
2226;DHT22;1119;48.288;8.726;2022-07-29T10:29:33;25.30;78.00
2226;DHT22;1119;48.288;8.726;2022-07-29T10:32:15;25.30;77.80
2226;DHT22;1119;48.288;8.726;2022-07-29T10:35:19;25.20;77.80
2226;DHT22;1119;48.288;8.726;2022-07-29T10:38:09;25.10;79.60
2226;DHT22;1119;48.288;8.726;2022-07-29T10:40:49;25.00;79.40
2226;DHT22;1119;48.288;8.726;2022-07-29T10:43:42;25.00;80.10
2226;DHT22;1119;48.288;8.726;2022-07-29T10:46:11;24.90;80.90
2226;DHT22;1119;48.288;8.726;2022-07-29T10:49:05;24.90;79.80
2226;DHT22;1119;48.288;8.726;2022-07-29T10:51:54;24.90;80.90
2226;DHT22;1119;48.288;8.726;2022-07-29T10:54:54;25.10;80.70
2226;DHT22;1119;48.288;8.726;2022-07-29T10:57:26;25.30;78.60
2226;DHT22;1119;48.288;8.726;2022-07-29T11:00:30;25.40;78.60
2226;DHT22;1119;48.288;8.726;2022-07-29T11:02:59;25.50;77.30
2226;DHT22;1119;48.288;8.726;2022-07-29T11:05:26;25.80;77.30
2226;DHT22;1119;48.288;8.726;2022-07-29T11:08:19;26.10;78.20
2226;DHT22;1119;48.288;8.726;2022-07-29T11:13:59;26.70;73.90
2226;DHT22;1119;48.288;8.726;2022-07-29T11:17:02;26.80;71.40
2226;DHT22;1119;48.288;8.726;2022-07-29T11:19:32;26.90;69.90
2226;DHT22;1119;48.288;8.726;2022-07-29T11:22:00;26.80;72.00
2226;DHT22;1119;48.288;8.726;2022-07-29T11:24:30;26.80;71.30
2226;DHT22;1119;48.288;8.726;2022-07-29T11:27:10;26.90;71.30
2226;DHT22;1119;48.288;8.726;2022-07-29T11:29:47;27.00;70.70
2226;DHT22;1119;48.288;8.726;2022-07-29T11:32:16;26.90;69.80
2226;DHT22;1119;48.288;8.726;2022-07-29T11:34:46;26.90;71.00
2226;DHT22;1119;48.288;8.726;2022-07-29T11:37:19;26.80;70.00
2226;DHT22;1119;48.288;8.726;2022-07-29T11:40:17;26.90;71.30
2226;DHT22;1119;48.288;8.726;2022-07-29T11:42:50;27.00;68.30
2226;DHT22;1119;48.288;8.726;2022-07-29T11:45:23;27.00;67.80
2226;DHT22;1119;48.288;8.726;2022-07-29T11:47:56;26.90;64.50
2226;DHT22;1119;48.288;8.726;2022-07-29T11:50:35;26.70;64.10
2226;DHT22;1119;48.288;8.726;2022-07-29T11:53:10;26.50;63.10
2226;DHT22;1119;48.288;8.726;2022-07-29T11:55:39;26.50;64.10
2226;DHT22;1119;48.288;8.726;2022-07-29T11:58:09;26.50;63.00
2226;DHT22;1119;48.288;8.726;2022-07-29T12:00:39;26.30;61.20
2226;DHT22;1119;48.288;8.726;2022-07-29T12:03:09;26.20;62.00
2226;DHT22;1119;48.288;8.726;2022-07-29T12:05:39;26.20;60.90
2226;DHT22;1119;48.288;8.726;2022-07-29T12:08:10;26.20;62.80
2226;DHT22;1119;48.288;8.726;2022-07-29T12:10:39;26.40;61.30
2226;DHT22;1119;48.288;8.726;2022-07-29T12:13:08;26.60;61.80
2226;DHT22;1119;48.288;8.726;2022-07-29T12:15:37;26.70;62.10
2226;DHT22;1119;48.288;8.726;2022-07-29T12:18:14;26.90;59.40
2226;DHT22;1119;48.288;8.726;2022-07-29T12:20:43;26.80;59.10
2226;DHT22;1119;48.288;8.726;2022-07-29T12:23:11;26.80;57.50
2226;DHT22;1119;48.288;8.726;2022-07-29T12:25:40;26.70;57.30
2226;DHT22;1119;48.288;8.726;2022-07-29T12:28:11;26.70;57.90
2226;DHT22;1119;48.288;8.726;2022-07-29T12:30:43;26.70;58.50
2226;DHT22;1119;48.288;8.726;2022-07-29T12:33:17;26.50;58.00
2226;DHT22;1119;48.288;8.726;2022-07-29T12:35:48;26.40;58.60
2226;DHT22;1119;48.288;8.726;2022-07-29T12:38:17;26.30;57.30
2226;DHT22;1119;48.288;8.726;2022-07-29T12:40:45;26.30;58.10
2226;DHT22;1119;48.288;8.726;2022-07-29T12:43:16;26.40;58.80
2226;DHT22;1119;48.288;8.726;2022-07-29T12:45:46;26.30;58.90
2226;DHT22;1119;48.288;8.726;2022-07-29T12:48:14;26.30;58.30
2226;DHT22;1119;48.288;8.726;2022-07-29T12:50:55;26.20;57.80
2226;DHT22;1119;48.288;8.726;2022-07-29T12:53:23;26.10;58.90
2226;DHT22;1119;48.288;8.726;2022-07-29T12:55:53;26.00;58.30
2226;DHT22;1119;48.288;8.726;2022-07-29T12:58:31;26.00;57.70
2226;DHT22;1119;48.288;8.726;2022-07-29T13:01:08;26.00;57.40
2226;DHT22;1119;48.288;8.726;2022-07-29T13:03:48;26.00;58.60
2226;DHT22;1119;48.288;8.726;2022-07-29T13:06:31;26.00;57.30
2226;DHT22;1119;48.288;8.726;2022-07-29T13:09:02;26.00;57.60
2226;DHT22;1119;48.288;8.726;2022-07-29T13:11:31;26.00;57.40
2226;DHT22;1119;48.288;8.726;2022-07-29T13:14:01;26.00;57.70
2226;DHT22;1119;48.288;8.726;2022-07-29T13:16:28;26.00;58.40
2226;DHT22;1119;48.288;8.726;2022-07-29T13:19:07;26.00;57.70
2226;DHT22;1119;48.288;8.726;2022-07-29T13:21:36;25.90;55.60
2226;DHT22;1119;48.288;8.726;2022-07-29T13:24:05;25.90;56.40
2226;DHT22;1119;48.288;8.726;2022-07-29T13:26:34;25.80;57.10
2226;DHT22;1119;48.288;8.726;2022-07-29T13:29:03;25.70;57.30
2226;DHT22;1119;48.288;8.726;2022-07-29T13:31:30;25.70;56.70
2226;DHT22;1119;48.288;8.726;2022-07-29T13:33:58;25.70;56.70
2226;DHT22;1119;48.288;8.726;2022-07-29T13:36:25;25.70;57.90
2226;DHT22;1119;48.288;8.726;2022-07-29T13:38:52;25.80;56.90
2226;DHT22;1119;48.288;8.726;2022-07-29T13:41:19;25.70;55.80
2226;DHT22;1119;48.288;8.726;2022-07-29T13:43:46;25.70;55.80
2226;DHT22;1119;48.288;8.726;2022-07-29T13:46:15;25.70;57.10
2226;DHT22;1119;48.288;8.726;2022-07-29T13:48:42;25.70;55.30
2226;DHT22;1119;48.288;8.726;2022-07-29T13:51:09;25.60;55.90
2226;DHT22;1119;48.288;8.726;2022-07-29T13:53:36;25.50;56.00
2226;DHT22;1119;48.288;8.726;2022-07-29T13:56:04;25.40;56.00
2226;DHT22;1119;48.288;8.726;2022-07-29T13:58:32;25.30;56.50
2226;DHT22;1119;48.288;8.726;2022-07-29T14:01:00;25.30;57.20
2226;DHT22;1119;48.288;8.726;2022-07-29T14:03:28;25.30;57.90
2226;DHT22;1119;48.288;8.726;2022-07-29T14:05:56;25.20;57.80
2226;DHT22;1119;48.288;8.726;2022-07-29T14:08:25;25.20;59.10
2226;DHT22;1119;48.288;8.726;2022-07-29T14:10:53;25.20;58.50
2226;DHT22;1119;48.288;8.726;2022-07-29T14:13:21;25.10;59.20
2226;DHT22;1119;48.288;8.726;2022-07-29T14:15:48;25.10;58.50
2226;DHT22;1119;48.288;8.726;2022-07-29T14:18:16;25.10;58.40
2226;DHT22;1119;48.288;8.726;2022-07-29T14:20:44;25.00;57.70
2226;DHT22;1119;48.288;8.726;2022-07-29T14:23:11;24.90;58.60
2226;DHT22;1119;48.288;8.726;2022-07-29T14:25:39;24.80;58.70
2226;DHT22;1119;48.288;8.726;2022-07-29T14:28:06;24.70;59.10
2226;DHT22;1119;48.288;8.726;2022-07-29T14:30:34;24.60;58.70
2226;DHT22;1119;48.288;8.726;2022-07-29T14:33:01;24.60;59.00
2226;DHT22;1119;48.288;8.726;2022-07-29T14:35:28;24.60;59.70
2226;DHT22;1119;48.288;8.726;2022-07-29T14:37:57;24.70;59.10
2226;DHT22;1119;48.288;8.726;2022-07-29T14:40:24;24.70;58.80
2226;DHT22;1119;48.288;8.726;2022-07-29T14:42:51;24.70;58.90
2226;DHT22;1119;48.288;8.726;2022-07-29T14:45:19;24.80;58.50
2226;DHT22;1119;48.288;8.726;2022-07-29T14:47:46;24.90;58.30
2226;DHT22;1119;48.288;8.726;2022-07-29T14:50:14;24.90;57.20
2226;DHT22;1119;48.288;8.726;2022-07-29T14:52:41;25.00;57.20
2226;DHT22;1119;48.288;8.726;2022-07-29T14:55:10;25.10;56.80
2226;DHT22;1119;48.288;8.726;2022-07-29T14:57:37;25.10;57.50
2226;DHT22;1119;48.288;8.726;2022-07-29T15:00:05;25.10;57.20
2226;DHT22;1119;48.288;8.726;2022-07-29T15:02:33;25.10;57.60
2226;DHT22;1119;48.288;8.726;2022-07-29T15:05:01;25.20;58.50
2226;DHT22;1119;48.288;8.726;2022-07-29T15:07:28;25.20;58.00
2226;DHT22;1119;48.288;8.726;2022-07-29T15:09:55;25.20;57.50
2226;DHT22;1119;48.288;8.726;2022-07-29T15:12:24;25.20;55.90
2226;DHT22;1119;48.288;8.726;2022-07-29T15:14:51;25.20;56.70
2226;DHT22;1119;48.288;8.726;2022-07-29T15:17:19;25.20;57.60
2226;DHT22;1119;48.288;8.726;2022-07-29T15:19:46;25.20;56.70
2226;DHT22;1119;48.288;8.726;2022-07-29T15:22:13;25.30;56.10
2226;DHT22;1119;48.288;8.726;2022-07-29T15:24:40;25.20;55.80
2226;DHT22;1119;48.288;8.726;2022-07-29T15:27:08;25.10;56.70
2226;DHT22;1119;48.288;8.726;2022-07-29T15:29:41;25.10;57.20
2226;DHT22;1119;48.288;8.726;2022-07-29T15:32:08;25.10;56.10
2226;DHT22;1119;48.288;8.726;2022-07-29T15:34:36;24.90;56.40
2226;DHT22;1119;48.288;8.726;2022-07-29T15:37:04;25.10;57.80
2226;DHT22;1119;48.288;8.726;2022-07-29T15:39:31;25.10;56.00
2226;DHT22;1119;48.288;8.726;2022-07-29T15:41:59;24.90;56.30
2226;DHT22;1119;48.288;8.726;2022-07-29T15:44:26;24.80;56.50
2226;DHT22;1119;48.288;8.726;2022-07-29T15:46:55;24.70;56.70
2226;DHT22;1119;48.288;8.726;2022-07-29T15:49:32;24.70;57.50
2226;DHT22;1119;48.288;8.726;2022-07-29T15:52:01;24.80;57.10
2226;DHT22;1119;48.288;8.726;2022-07-29T15:54:32;24.80;56.70
2226;DHT22;1119;48.288;8.726;2022-07-29T15:57:00;24.80;57.40
2226;DHT22;1119;48.288;8.726;2022-07-29T15:59:27;24.90;57.00
2226;DHT22;1119;48.288;8.726;2022-07-29T16:01:56;24.80;56.30
2226;DHT22;1119;48.288;8.726;2022-07-29T16:04:24;24.70;56.40
2226;DHT22;1119;48.288;8.726;2022-07-29T16:06:51;24.60;56.30
2226;DHT22;1119;48.288;8.726;2022-07-29T16:09:19;24.50;56.30
2226;DHT22;1119;48.288;8.726;2022-07-29T16:11:47;24.50;56.20
2226;DHT22;1119;48.288;8.726;2022-07-29T16:14:16;24.50;56.50
2226;DHT22;1119;48.288;8.726;2022-07-29T16:16:43;24.50;56.90
2226;DHT22;1119;48.288;8.726;2022-07-29T16:19:12;24.50;57.50
2226;DHT22;1119;48.288;8.726;2022-07-29T16:21:39;24.50;57.00
2226;DHT22;1119;48.288;8.726;2022-07-29T16:24:07;24.50;57.30